createdAt,value
2023-04-23T00:02:03.083Z,17.18
2023-04-23T00:04:34.100Z,17.18
2023-04-23T00:07:02.085Z,17.11
2023-04-23T00:09:32.475Z,16.98
2023-04-23T00:12:02.125Z,16.89
2023-04-23T00:14:31.048Z,16.83
2023-04-23T00:16:59.686Z,16.78
2023-04-23T00:19:27.216Z,16.72
2023-04-23T00:21:54.763Z,16.73
2023-04-23T00:24:22.545Z,16.76
2023-04-23T00:26:53.539Z,16.70
2023-04-23T00:29:21.133Z,16.67
2023-04-23T00:31:49.305Z,16.65
2023-04-23T00:34:16.974Z,16.66
2023-04-23T00:36:45.175Z,16.63
2023-04-23T00:39:12.904Z,16.66
2023-04-23T00:41:41.711Z,16.72
2023-04-23T00:44:09.834Z,16.74
2023-04-23T00:46:38.543Z,16.71
2023-04-23T00:49:06.059Z,16.67
2023-04-23T00:51:33.785Z,16.64
2023-04-23T00:54:02.217Z,16.56
2023-04-23T00:56:30.280Z,16.59
2023-04-23T00:58:58.241Z,16.59
2023-04-23T01:01:26.298Z,16.63
2023-04-23T01:03:53.927Z,16.56
2023-04-23T01:06:21.617Z,16.57
2023-04-23T01:08:49.286Z,16.51
2023-04-23T01:11:16.932Z,16.53
2023-04-23T01:13:44.608Z,16.53
2023-04-23T01:16:12.621Z,16.57
2023-04-23T01:18:41.267Z,16.59
2023-04-23T01:21:10.065Z,16.60
2023-04-23T01:23:38.065Z,16.64
2023-04-23T01:26:06.076Z,16.56
2023-04-23T01:28:33.614Z,16.47
2023-04-23T01:31:00.888Z,16.39
2023-04-23T01:33:28.665Z,16.39
2023-04-23T01:35:55.574Z,16.44
2023-04-23T01:38:23.666Z,16.40
2023-04-23T01:40:51.908Z,16.39
2023-04-23T01:43:19.954Z,16.39
2023-04-23T01:45:47.994Z,16.42
2023-04-23T01:48:15.257Z,16.43
2023-04-23T01:50:43.277Z,16.33
2023-04-23T01:53:10.543Z,16.29
2023-04-23T01:55:39.517Z,16.31
2023-04-23T01:58:07.249Z,16.29
2023-04-23T02:00:35.176Z,16.26
2023-04-23T02:03:03.308Z,16.32
2023-04-23T02:05:31.596Z,16.30
2023-04-23T02:07:59.405Z,16.30
2023-04-23T02:10:27.214Z,16.28
2023-04-23T02:12:55.113Z,16.16
2023-04-23T02:15:23.204Z,16.12
2023-04-23T02:17:52.354Z,16.20
2023-04-23T02:20:19.890Z,16.24
2023-04-23T02:22:48.221Z,16.27
2023-04-23T02:25:17.029Z,16.23
2023-04-23T02:27:45.552Z,16.24
2023-04-23T02:30:14.334Z,16.18
2023-04-23T02:32:43.243Z,16.20
2023-04-23T02:35:11.043Z,16.15
2023-04-23T02:37:38.435Z,16.15
2023-04-23T02:40:09.198Z,16.13
2023-04-23T02:42:37.535Z,16.04
2023-04-23T02:45:07.383Z,16.02
2023-04-23T02:47:34.515Z,16.02
2023-04-23T02:50:05.975Z,16.00
2023-04-23T02:52:34.381Z,15.98
2023-04-23T02:55:02.622Z,15.98
2023-04-23T02:57:30.559Z,15.99
2023-04-23T02:59:58.724Z,16.02
2023-04-23T03:02:26.549Z,16.02
2023-04-23T03:04:54.634Z,16.02
2023-04-23T03:07:22.634Z,16.00
2023-04-23T03:09:50.290Z,16.01
2023-04-23T03:12:18.322Z,16.05
2023-04-23T03:14:45.902Z,16.03
2023-04-23T03:17:14.055Z,15.99
2023-04-23T03:19:41.723Z,15.94
2023-04-23T03:22:10.032Z,15.92
2023-04-23T03:24:38.000Z,15.89
2023-04-23T03:27:06.962Z,15.91
2023-04-23T03:29:34.564Z,15.96
2023-04-23T03:32:02.740Z,15.94
2023-04-23T03:34:30.597Z,15.94
2023-04-23T03:36:58.741Z,15.93
2023-04-23T03:39:26.860Z,15.91
2023-04-23T03:41:54.484Z,15.86
2023-04-23T03:44:22.397Z,15.85
2023-04-23T03:46:50.031Z,15.87
2023-04-23T03:49:17.725Z,15.85
2023-04-23T03:51:45.560Z,15.87
2023-04-23T03:54:19.719Z,15.88
2023-04-23T03:56:47.911Z,15.85
2023-04-23T03:59:16.043Z,15.76
2023-04-23T04:01:44.340Z,15.70
2023-04-23T04:04:12.219Z,15.74
2023-04-23T04:06:40.488Z,15.64
2023-04-23T04:09:09.045Z,15.59
2023-04-23T04:11:38.057Z,15.53
2023-04-23T04:14:06.137Z,15.55
2023-04-23T04:16:34.544Z,15.52
2023-04-23T04:19:02.880Z,15.56
2023-04-23T04:21:30.866Z,15.53
2023-04-23T04:23:58.940Z,15.52
2023-04-23T04:26:27.019Z,15.48
2023-04-23T04:28:55.063Z,15.44
2023-04-23T04:31:22.952Z,15.40
2023-04-23T04:33:50.936Z,15.36
2023-04-23T04:36:19.072Z,15.40
2023-04-23T04:38:46.683Z,15.44
2023-04-23T04:41:14.981Z,15.47
2023-04-23T04:43:43.738Z,15.50
2023-04-23T04:46:11.974Z,15.53
2023-04-23T04:48:40.439Z,15.50
2023-04-23T04:51:07.931Z,15.48
2023-04-23T04:53:36.147Z,15.48
2023-04-23T04:56:03.822Z,15.51
2023-04-23T04:58:31.790Z,15.50
2023-04-23T05:00:59.700Z,15.54
2023-04-23T05:03:27.572Z,15.59
2023-04-23T05:05:56.532Z,15.65
2023-04-23T05:08:24.260Z,15.70
2023-04-23T05:10:51.898Z,15.78
2023-04-23T05:13:19.899Z,15.86
2023-04-23T05:15:48.222Z,15.94
2023-04-23T05:18:16.235Z,15.96
2023-04-23T05:20:43.292Z,16.02
2023-04-23T05:23:11.421Z,16.13
2023-04-23T05:25:40.611Z,16.24
2023-04-23T05:28:08.939Z,16.30
2023-04-23T05:30:36.594Z,16.34
2023-04-23T05:33:04.214Z,16.35
2023-04-23T05:35:32.067Z,16.36
2023-04-23T05:38:00.022Z,16.37
2023-04-23T05:40:28.037Z,16.33
2023-04-23T05:42:56.039Z,16.40
2023-04-23T05:45:24.308Z,16.43
2023-04-23T05:47:51.980Z,16.44
2023-04-23T05:50:20.697Z,16.47
2023-04-23T05:52:50.270Z,16.55
2023-04-23T05:55:18.494Z,16.55
2023-04-23T05:57:46.531Z,16.57
2023-04-23T06:00:16.014Z,16.67
2023-04-23T06:02:44.573Z,16.72
2023-04-23T06:05:12.780Z,16.76
2023-04-23T06:07:41.529Z,16.86
2023-04-23T06:10:10.522Z,16.96
2023-04-23T06:12:39.576Z,17.09
2023-04-23T06:15:10.107Z,17.19
2023-04-23T06:17:37.453Z,17.33
2023-04-23T06:20:11.981Z,17.43
2023-04-23T06:22:39.765Z,17.49
2023-04-23T06:25:10.248Z,17.47
2023-04-23T06:27:43.879Z,17.43
2023-04-23T06:30:13.786Z,17.36
2023-04-23T06:32:41.459Z,17.36
2023-04-23T06:35:11.054Z,17.37
2023-04-23T06:37:39.120Z,17.49
2023-04-23T06:40:08.533Z,17.57
2023-04-23T06:42:37.079Z,17.68
2023-04-23T06:45:10.324Z,17.85
2023-04-23T06:47:38.623Z,18.08
2023-04-23T06:50:10.196Z,18.30
2023-04-23T06:52:37.541Z,18.45
2023-04-23T06:55:06.804Z,18.55
2023-04-23T06:57:35.148Z,18.64
2023-04-23T07:00:02.948Z,18.67
2023-04-23T07:02:34.249Z,18.68
2023-04-23T07:05:02.477Z,18.73
2023-04-23T07:07:30.550Z,18.76
2023-04-23T07:09:58.174Z,18.77
2023-04-23T07:12:25.371Z,18.71
2023-04-23T07:14:54.420Z,18.65
2023-04-23T07:17:22.090Z,18.57
2023-04-23T07:19:50.274Z,18.67
2023-04-23T07:22:18.243Z,18.84
2023-04-23T07:24:45.923Z,18.99
2023-04-23T07:27:14.450Z,19.13
2023-04-23T07:29:43.402Z,19.25
2023-04-23T07:32:10.968Z,19.39
2023-04-23T07:34:44.263Z,19.51
2023-04-23T07:37:12.704Z,19.59
2023-04-23T07:39:44.837Z,19.66
2023-04-23T07:42:13.841Z,19.68
2023-04-23T07:44:41.937Z,19.73
2023-04-23T07:47:09.493Z,19.76
2023-04-23T07:49:37.494Z,19.86
2023-04-23T07:52:05.948Z,19.93
2023-04-23T07:54:33.740Z,19.95
2023-04-23T07:57:01.414Z,20.06
2023-04-23T07:59:29.423Z,20.11
2023-04-23T08:01:57.395Z,20.17
2023-04-23T08:04:27.458Z,20.26
2023-04-23T08:06:55.354Z,20.33
2023-04-23T08:09:23.619Z,20.41
2023-04-23T08:11:51.271Z,20.47
2023-04-23T08:14:18.917Z,20.55
2023-04-23T08:16:47.084Z,20.54
2023-04-23T08:19:15.272Z,20.57
2023-04-23T08:21:43.266Z,20.65
2023-04-23T08:24:10.874Z,20.69
2023-04-23T08:26:38.921Z,20.79
2023-04-23T08:29:06.148Z,20.87
2023-04-23T08:31:34.234Z,20.98
2023-04-23T08:34:02.488Z,21.05
2023-04-23T08:36:30.066Z,21.08
2023-04-23T08:38:57.922Z,21.13
2023-04-23T08:41:26.625Z,21.17
2023-04-23T08:44:01.626Z,21.30
2023-04-23T08:46:29.351Z,21.41
2023-04-23T08:48:57.218Z,21.54
2023-04-23T08:51:25.264Z,21.62
2023-04-23T08:53:55.232Z,21.74
2023-04-23T08:56:22.473Z,21.80
2023-04-23T08:58:51.215Z,21.81
2023-04-23T09:01:19.446Z,21.80
2023-04-23T09:03:47.606Z,21.82
2023-04-23T09:06:15.705Z,21.87
2023-04-23T09:08:43.905Z,21.98
2023-04-23T09:11:12.002Z,22.08
2023-04-23T09:13:41.557Z,22.20
2023-04-23T09:16:10.282Z,22.20
2023-04-23T09:18:38.733Z,22.28
2023-04-23T09:21:06.541Z,22.29
2023-04-23T09:23:34.657Z,22.38
2023-04-23T09:26:08.330Z,22.34
2023-04-23T09:28:36.755Z,22.46
2023-04-23T09:31:06.263Z,22.51
2023-04-23T09:33:36.456Z,22.54
2023-04-23T09:36:12.285Z,22.64
2023-04-23T09:38:42.220Z,22.77
2023-04-23T09:41:26.699Z,22.85
2023-04-23T09:43:56.662Z,22.92
2023-04-23T09:46:48.945Z,22.76
2023-04-23T09:49:16.465Z,22.85
2023-04-23T09:51:44.985Z,22.96
2023-04-23T09:54:21.955Z,23.02
2023-04-23T09:56:57.697Z,22.93
2023-04-23T09:59:45.446Z,22.95
2023-04-23T10:02:14.526Z,23.01
2023-04-23T10:04:42.518Z,23.08
2023-04-23T10:07:19.596Z,23.17
2023-04-23T10:09:48.254Z,23.25
2023-04-23T10:14:46.826Z,23.45
2023-04-23T10:17:14.791Z,23.48
2023-04-23T10:19:43.539Z,23.58
2023-04-23T10:22:19.350Z,23.62
2023-04-23T10:24:49.429Z,23.75
2023-04-23T10:27:30.659Z,23.75
2023-04-23T10:30:06.521Z,23.65
2023-04-23T10:32:37.608Z,23.52
2023-04-23T10:35:07.537Z,23.60
2023-04-23T10:37:35.588Z,23.70
2023-04-23T10:40:15.328Z,23.87
2023-04-23T10:42:43.470Z,23.96
2023-04-23T10:47:49.194Z,24.11
2023-04-23T10:50:30.800Z,24.26
2023-04-23T10:52:59.027Z,24.31
2023-04-23T10:55:28.062Z,24.43
2023-04-23T10:58:01.534Z,24.51
2023-04-23T11:00:51.038Z,24.66
2023-04-23T11:03:32.584Z,24.55
2023-04-23T11:06:04.129Z,24.67
2023-04-23T11:08:34.667Z,24.68
2023-04-23T11:11:02.547Z,24.80
2023-04-23T11:13:30.057Z,24.76
2023-04-23T11:16:21.767Z,24.73
2023-04-23T11:19:03.992Z,24.80
2023-04-23T11:21:56.582Z,24.99
2023-04-23T11:24:25.285Z,24.90
2023-04-23T11:26:55.017Z,24.99
2023-04-23T11:29:23.800Z,25.16
2023-04-23T11:32:01.839Z,25.26
2023-04-23T11:34:30.576Z,25.33
2023-04-23T11:36:59.132Z,25.49
2023-04-23T11:39:27.570Z,25.79
2023-04-23T11:41:55.059Z,26.00
2023-04-23T11:44:22.782Z,26.42
2023-04-23T11:46:50.255Z,26.78
2023-04-23T11:49:18.126Z,27.26
2023-04-23T11:51:45.893Z,27.88
2023-04-23T11:54:13.883Z,27.99
2023-04-23T11:56:42.053Z,28.18
2023-04-23T11:59:09.790Z,28.50
2023-04-23T12:01:47.023Z,28.60
2023-04-23T12:04:41.722Z,28.21
2023-04-23T12:07:25.791Z,28.07
2023-04-23T12:09:53.712Z,27.77
2023-04-23T12:12:21.764Z,27.70
2023-04-23T12:14:49.905Z,27.91
2023-04-23T12:17:17.473Z,28.10
2023-04-23T12:19:45.081Z,27.81
2023-04-23T12:22:12.927Z,27.50
2023-04-23T12:24:51.668Z,27.28
2023-04-23T12:27:20.545Z,27.17
2023-04-23T12:29:48.620Z,26.90
2023-04-23T12:32:15.960Z,26.70
2023-04-23T12:34:53.588Z,26.59
2023-04-23T12:37:26.642Z,26.62
2023-04-23T12:39:55.581Z,26.63
2023-04-23T12:42:22.457Z,26.53
2023-04-23T12:44:51.805Z,26.37
2023-04-23T12:47:25.235Z,26.39
2023-04-23T12:49:56.830Z,26.59
2023-04-23T12:52:24.136Z,26.67
2023-04-23T12:54:56.981Z,26.80
2023-04-23T12:57:25.369Z,27.01
2023-04-23T12:59:54.984Z,26.89
2023-04-23T13:02:23.371Z,26.92
2023-04-23T13:04:51.273Z,26.85
2023-04-23T13:07:18.866Z,26.68
2023-04-23T13:09:55.363Z,26.48
2023-04-23T13:12:25.479Z,26.49
2023-04-23T13:14:53.219Z,26.47
2023-04-23T13:17:21.462Z,26.55
2023-04-23T13:19:49.105Z,26.43
2023-04-23T13:22:17.288Z,26.38
2023-04-23T13:24:45.707Z,26.58
2023-04-23T13:27:13.636Z,26.80
2023-04-23T13:29:42.047Z,26.93
2023-04-23T13:32:10.923Z,27.14
2023-04-23T13:34:39.006Z,27.51
2023-04-23T13:37:09.346Z,27.63
2023-04-23T13:39:39.943Z,28.50
2023-04-23T13:42:10.194Z,29.35
2023-04-23T13:44:38.551Z,29.88
2023-04-23T13:47:07.663Z,30.93
2023-04-23T13:49:36.073Z,32.01
2023-04-23T13:52:07.319Z,32.26
2023-04-23T13:54:36.006Z,31.72
2023-04-23T13:57:03.737Z,30.77
2023-04-23T13:59:31.421Z,31.00
2023-04-23T14:01:59.911Z,30.86
2023-04-23T14:04:27.927Z,30.15
2023-04-23T14:06:55.693Z,29.48
2023-04-23T14:09:23.529Z,28.90
2023-04-23T14:11:51.629Z,28.43
2023-04-23T14:14:21.441Z,28.10
2023-04-23T14:16:49.879Z,27.82
2023-04-23T14:19:18.447Z,27.69
2023-04-23T14:21:46.747Z,27.46
2023-04-23T14:24:26.942Z,27.42
2023-04-23T14:26:54.469Z,27.49
2023-04-23T14:29:31.551Z,27.50
2023-04-23T14:31:59.061Z,27.28
2023-04-23T14:34:27.520Z,27.05
2023-04-23T14:36:55.084Z,26.85
2023-04-23T14:39:26.893Z,26.65
2023-04-23T14:41:54.473Z,26.58
2023-04-23T14:44:26.696Z,26.81
2023-04-23T14:46:54.625Z,27.23
2023-04-23T14:49:22.702Z,27.51
2023-04-23T14:51:51.079Z,28.39
2023-04-23T14:54:19.048Z,28.85
2023-04-23T14:56:47.351Z,29.04
2023-04-23T14:59:15.160Z,29.21
2023-04-23T15:01:43.521Z,29.22
2023-04-23T15:04:12.005Z,29.16
2023-04-23T15:06:40.790Z,29.38
2023-04-23T15:09:09.197Z,29.48
2023-04-23T15:11:37.993Z,29.32
2023-04-23T15:14:11.370Z,29.36
2023-04-23T15:19:12.840Z,29.85
2023-04-23T15:21:42.903Z,30.11
2023-04-23T15:24:11.116Z,30.17
2023-04-23T15:26:38.796Z,30.22
2023-04-23T15:29:09.147Z,29.96
2023-04-23T15:31:38.339Z,29.94
2023-04-23T15:34:09.639Z,29.85
2023-04-23T15:36:38.083Z,29.73
2023-04-23T15:39:07.383Z,29.36
2023-04-23T15:41:39.432Z,29.02
2023-04-23T15:44:13.373Z,28.63
2023-04-23T15:46:41.126Z,28.20
2023-04-23T15:49:08.886Z,27.87
2023-04-23T15:51:36.689Z,27.76
2023-04-23T15:54:08.117Z,27.78
2023-04-23T15:56:37.506Z,27.58
2023-04-23T15:59:04.791Z,27.33
2023-04-23T16:01:32.822Z,27.09
2023-04-23T16:04:10.362Z,26.86
2023-04-23T16:06:39.269Z,26.74
2023-04-23T16:09:09.352Z,26.51
2023-04-23T16:11:37.215Z,26.40
2023-04-23T16:14:05.606Z,26.37
2023-04-23T16:16:33.341Z,26.21
2023-04-23T16:19:02.636Z,26.15
2023-04-23T16:21:31.340Z,26.23
2023-04-23T16:23:58.906Z,26.14
2023-04-23T16:26:26.428Z,26.09
2023-04-23T16:29:05.504Z,26.10
2023-04-23T16:31:39.801Z,26.12
2023-04-23T16:34:07.529Z,26.13
2023-04-23T16:36:35.297Z,26.07
2023-04-23T16:39:10.467Z,25.99
2023-04-23T16:41:37.973Z,25.93
2023-04-23T16:44:05.870Z,25.91
2023-04-23T16:46:33.635Z,25.84
2023-04-23T16:49:01.292Z,25.78
2023-04-23T16:51:29.682Z,25.66
2023-04-23T16:53:58.099Z,25.50
2023-04-23T16:56:24.790Z,25.39
2023-04-23T16:58:52.052Z,25.35
2023-04-23T17:01:19.744Z,25.27
2023-04-23T17:03:48.003Z,25.15
2023-04-23T17:06:27.731Z,25.10
2023-04-23T17:08:55.912Z,24.92
2023-04-23T17:11:24.731Z,24.82
2023-04-23T17:13:57.716Z,24.70
2023-04-23T17:16:27.913Z,24.61
2023-04-23T17:18:55.852Z,24.50
2023-04-23T17:21:23.804Z,24.40
2023-04-23T17:23:50.541Z,24.30
2023-04-23T17:26:18.565Z,24.17
2023-04-23T17:28:47.118Z,24.08
2023-04-23T17:31:15.634Z,23.98
2023-04-23T17:33:49.662Z,23.84
2023-04-23T17:36:17.699Z,23.80
2023-04-23T17:38:45.939Z,23.68
2023-04-23T17:41:13.925Z,23.63
2023-04-23T17:43:41.944Z,23.51
2023-04-23T17:46:09.617Z,23.36
2023-04-23T17:48:37.193Z,23.25
2023-04-23T17:51:05.220Z,23.17
2023-04-23T17:53:33.283Z,23.09
2023-04-23T17:56:03.053Z,22.96
2023-04-23T17:58:30.888Z,22.89
2023-04-23T18:00:59.165Z,22.76
2023-04-23T18:03:27.903Z,22.64
2023-04-23T18:05:55.423Z,22.56
2023-04-23T18:08:23.375Z,22.51
2023-04-23T18:10:51.452Z,22.39
2023-04-23T18:13:19.166Z,22.29
2023-04-23T18:15:49.955Z,22.22
2023-04-23T18:18:18.939Z,22.16
2023-04-23T18:20:47.638Z,22.06
2023-04-23T18:23:15.592Z,22.00
2023-04-23T18:25:44.082Z,21.95
2023-04-23T18:28:12.061Z,21.90
2023-04-23T18:30:39.404Z,21.81
2023-04-23T18:33:25.456Z,21.73
2023-04-23T18:35:54.091Z,21.70
2023-04-23T18:38:41.710Z,21.67
2023-04-23T18:41:09.333Z,21.62
2023-04-23T18:43:37.108Z,21.55
2023-04-23T18:46:04.255Z,21.51
2023-04-23T18:48:34.218Z,21.47
2023-04-23T18:51:15.821Z,21.45
2023-04-23T18:53:43.607Z,21.39
2023-04-23T18:56:11.103Z,21.39
2023-04-23T18:58:39.019Z,21.38
2023-04-23T19:01:06.716Z,21.39
2023-04-23T19:03:34.362Z,21.37
2023-04-23T19:06:07.357Z,21.32
2023-04-23T19:08:36.433Z,21.30
2023-04-23T19:11:04.197Z,21.26
2023-04-23T19:13:38.141Z,21.09
2023-04-23T19:16:06.038Z,21.02
2023-04-23T19:18:34.789Z,20.94
2023-04-23T19:21:02.423Z,20.86
2023-04-23T19:23:30.088Z,20.74
2023-04-23T19:25:58.206Z,20.80
2023-04-23T19:28:26.085Z,20.73
2023-04-23T19:30:55.859Z,20.67
2023-04-23T19:33:35.924Z,20.63
2023-04-23T19:36:03.608Z,20.61
2023-04-23T19:38:41.379Z,20.56
2023-04-23T19:41:09.003Z,20.46
2023-04-23T19:43:36.542Z,20.34
2023-04-23T19:46:04.680Z,20.35
2023-04-23T19:48:44.471Z,20.31
2023-04-23T19:51:11.163Z,20.26
2023-04-23T19:53:38.882Z,20.24
2023-04-23T19:56:09.123Z,20.23
2023-04-23T19:58:36.912Z,20.18
2023-04-23T20:01:04.578Z,20.18
2023-04-23T20:03:34.693Z,20.18
2023-04-23T20:06:02.383Z,20.16
2023-04-23T20:08:41.452Z,20.17
2023-04-23T20:11:11.863Z,20.20
2023-04-23T20:13:39.564Z,20.13
2023-04-23T20:16:08.372Z,20.14
2023-04-23T20:18:38.814Z,20.09
2023-04-23T20:21:06.435Z,20.11
2023-04-23T20:23:34.373Z,20.12
2023-04-23T20:26:01.559Z,20.13
2023-04-23T20:28:29.209Z,20.18
2023-04-23T20:30:56.846Z,20.13
2023-04-23T20:33:24.549Z,20.09
2023-04-23T20:35:51.892Z,20.07
2023-04-23T20:38:39.308Z,20.07
2023-04-23T20:41:10.104Z,20.14
2023-04-23T20:43:42.645Z,20.13
2023-04-23T20:46:10.398Z,20.11
2023-04-23T20:48:39.379Z,20.06
2023-04-23T20:51:08.622Z,19.98
2023-04-23T20:53:40.173Z,19.99
2023-04-23T20:56:07.928Z,19.98
2023-04-23T20:58:36.426Z,19.95
2023-04-23T21:01:04.943Z,19.91
2023-04-23T21:03:33.155Z,19.91
2023-04-23T21:06:00.903Z,19.88
2023-04-23T21:08:28.969Z,19.86
2023-04-23T21:10:56.058Z,19.85
2023-04-23T21:13:23.249Z,19.84
2023-04-23T21:15:50.903Z,19.86
2023-04-23T21:18:19.313Z,19.80
2023-04-23T21:20:47.245Z,19.71
2023-04-23T21:23:15.446Z,19.69
2023-04-23T21:25:43.194Z,19.66
2023-04-23T21:28:11.025Z,19.63
2023-04-23T21:30:51.018Z,19.63
2023-04-23T21:33:18.921Z,19.58
2023-04-23T21:35:46.272Z,19.55
2023-04-23T21:38:14.657Z,19.52
2023-04-23T21:40:41.820Z,19.44
2023-04-23T21:43:09.409Z,19.41
2023-04-23T21:45:37.220Z,19.42
2023-04-23T21:48:04.274Z,19.40
2023-04-23T21:50:32.426Z,19.39
2023-04-23T21:53:00.625Z,19.39
2023-04-23T21:55:27.985Z,19.37
2023-04-23T21:58:03.285Z,19.34
2023-04-23T22:00:42.623Z,19.30
2023-04-23T22:03:11.388Z,19.29
2023-04-23T22:05:38.975Z,19.27
2023-04-23T22:08:09.672Z,19.29
2023-04-23T22:10:42.909Z,19.28
2023-04-23T22:13:11.216Z,19.32
2023-04-23T22:15:38.476Z,19.31
2023-04-23T22:18:06.663Z,19.29
2023-04-23T22:20:34.159Z,19.29
2023-04-23T22:23:02.163Z,19.30
2023-04-23T22:25:29.632Z,19.30
2023-04-23T22:27:57.656Z,19.32
2023-04-23T22:30:26.212Z,19.34
2023-04-23T22:32:54.266Z,19.31
2023-04-23T22:35:22.661Z,19.31
2023-04-23T22:37:50.336Z,19.30
2023-04-23T22:40:17.561Z,19.30
2023-04-23T22:42:45.925Z,19.28
2023-04-23T22:45:13.446Z,19.27
2023-04-23T22:47:41.936Z,19.26
2023-04-23T22:50:12.256Z,19.26
2023-04-23T22:52:39.956Z,19.23
2023-04-23T22:55:09.998Z,19.22
2023-04-23T22:57:40.392Z,19.17
2023-04-23T23:00:13.855Z,19.15
2023-04-23T23:02:41.687Z,19.17
2023-04-23T23:05:09.780Z,19.16
2023-04-23T23:07:37.247Z,19.14
2023-04-23T23:10:08.603Z,19.18
2023-04-23T23:12:39.504Z,19.14
2023-04-23T23:15:09.089Z,19.09
2023-04-23T23:17:37.132Z,19.09
2023-04-23T23:20:09.998Z,19.04
2023-04-23T23:22:38.569Z,19.04
2023-04-23T23:25:07.615Z,19.02
2023-04-23T23:27:35.727Z,19.01
2023-04-23T23:30:06.055Z,18.96
2023-04-23T23:32:33.846Z,18.94
2023-04-23T23:35:01.962Z,18.94
2023-04-23T23:37:30.398Z,18.96
2023-04-23T23:39:58.272Z,19.06
2023-04-23T23:42:25.958Z,19.01
2023-04-23T23:44:53.914Z,18.96
2023-04-23T23:47:21.582Z,18.94
2023-04-23T23:49:52.443Z,18.92
2023-04-23T23:52:20.167Z,18.92
2023-04-23T23:54:48.087Z,18.91
2023-04-23T23:57:15.955Z,18.87
2023-04-23T23:59:44.528Z,18.91
